PWSweather.com
Personal Weather Stations
Station Observations
ANTHEMNP
Anthem North Parkside, Anthem, AZ 85086

Anthem North ParksideAnthem, AZ 85086

Lat: 33.876464, Lon: -112.13861199999997

Elevation: 1930

Station Type: Davis Vantage Vue with Pro 2 console

http://www.azjerry.com/ANPW/wxindex.php

Latest ConditionsUpdated 12:50:09 PM MST Sunday, Nov 17, 2019
Currently Today's Max Today's Min Today's Average
Temperature 82.2°F27.9°C 82.2°F27.9°C 64.3°F17.9°C 70.7°F21.5°C
Dew Point 27.0°F-2.8°C 32.0°F0.0°C 20.0°F-6.7°C 23.9°F-4.5°C
Winds 1.3 mph SW2.1 kmh SW 14.8 mph -23.8 kmh - - 9.2 mph 14.8 kmh
Wind Gusts 5.0 mph8.0 kmh 25.0 mph40.2 kmh - -
Humidity 13% 29% 11% 18%
Pressure 30.05 in1017.6 mb 30.09 in1019.0 mb 30.04 in1017.3 mb -
Hour Temp Dew Point Humidity Winds Wind Gusts Pressure Precip Precip Rate Daily Precip Total
12:50 PM 82.2°F27.9°C 27.0°F-2.8°C 13% 1.3 mph SW2.1 kmh SW 5.0 mph8.0 kmh 30.05 in1017.6 mb 0.00 in0.0 mm 0.00 in0.0 mm 0.00 in0.0 mm
12:40 PM 81.6°F27.6°C 24.0°F-4.4°C 12% 1.6 mph SSW2.6 kmh SSW 5.0 mph8.0 kmh 30.05 in1017.6 mb 0.00 in0.0 mm 0.00 in0.0 mm 0.00 in0.0 mm
12:30 PM 81.1°F27.3°C 22.0°F-5.6°C 11% 1.9 mph SW3.1 kmh SW 5.0 mph8.0 kmh 30.05 in1017.6 mb 0.00 in0.0 mm 0.00 in0.0 mm 0.00 in0.0 mm
12:20 PM 80.2°F26.8°C 23.0°F-5.0°C 12% 3.5 mph SE5.6 kmh SE 12.0 mph19.3 kmh 30.06 in1017.9 mb 0.00 in0.0 mm 0.00 in0.0 mm 0.00 in0.0 mm
12:10 PM 80.0°F26.7°C 23.0°F-5.0°C 12% 4.1 mph NNW6.6 kmh NNW 8.0 mph12.9 kmh 30.06 in1017.9 mb 0.00 in0.0 mm 0.00 in0.0 mm 0.00 in0.0 mm
12:00 PM 79.5°F26.4°C 20.0°F-6.7°C 11% 5.2 mph N8.4 kmh N 10.0 mph16.1 kmh 30.06 in1017.9 mb 0.00 in0.0 mm 0.00 in0.0 mm 0.00 in0.0 mm
11:50 AM 79.2°F26.2°C 22.0°F-5.6°C 12% 6.3 mph N10.1 kmh N 11.0 mph17.7 kmh 30.07 in1018.3 mb 0.00 in0.0 mm 0.00 in0.0 mm 0.00 in0.0 mm
11:40 AM 78.8°F26.0°C 22.0°F-5.6°C 12% 6.4 mph NW10.3 kmh NW 13.0 mph20.9 kmh 30.07 in1018.3 mb 0.00 in0.0 mm 0.00 in0.0 mm 0.00 in0.0 mm
11:30 AM 78.0°F25.6°C 23.0°F-5.0°C 13% 6.7 mph NE10.8 kmh NE 13.0 mph20.9 kmh 30.07 in1018.3 mb 0.00 in0.0 mm 0.00 in0.0 mm 0.00 in0.0 mm
11:20 AM 77.3°F25.2°C 23.0°F-5.0°C 13% 7.8 mph N12.6 kmh N 13.0 mph20.9 kmh 30.08 in1018.6 mb 0.00 in0.0 mm 0.00 in0.0 mm 0.00 in0.0 mm
11:10 AM 76.8°F24.9°C 24.0°F-4.4°C 14% 9.0 mph NE14.5 kmh NE 16.0 mph25.7 kmh 30.08 in1018.6 mb 0.00 in0.0 mm 0.00 in0.0 mm 0.00 in0.0 mm
11:00 AM 76.3°F24.6°C 22.0°F-5.6°C 13% 8.6 mph N13.8 kmh N 15.0 mph24.1 kmh 30.08 in1018.6 mb 0.00 in0.0 mm 0.00 in0.0 mm 0.00 in0.0 mm
10:50 AM 75.5°F24.2°C 23.0°F-5.0°C 14% 9.4 mph NW15.1 kmh NW 17.0 mph27.4 kmh 30.09 in1019.0 mb 0.00 in0.0 mm 0.00 in0.0 mm 0.00 in0.0 mm
10:40 AM 74.8°F23.8°C 22.0°F-5.6°C 14% 10.4 mph N16.7 kmh N 18.0 mph29.0 kmh 30.08 in1018.6 mb 0.00 in0.0 mm 0.00 in0.0 mm 0.00 in0.0 mm
10:30 AM 74.2°F23.4°C 24.0°F-4.4°C 15% 9.9 mph NNE15.9 kmh NNE 19.0 mph30.6 kmh 30.08 in1018.6 mb 0.00 in0.0 mm 0.00 in0.0 mm 0.00 in0.0 mm
10:20 AM 73.6°F23.1°C 23.0°F-5.0°C 15% 11.1 mph NE17.9 kmh NE 19.0 mph30.6 kmh 30.08 in1018.6 mb 0.00 in0.0 mm 0.00 in0.0 mm 0.00 in0.0 mm
10:10 AM 72.9°F22.7°C 23.0°F-5.0°C 15% 11.3 mph NE18.2 kmh NE 22.0 mph35.4 kmh 30.09 in1019.0 mb 0.00 in0.0 mm 0.00 in0.0 mm 0.00 in0.0 mm
10:00 AM 72.4°F22.4°C 22.0°F-5.6°C 15% 11.9 mph NE19.2 kmh NE 22.0 mph35.4 kmh 30.08 in1018.6 mb 0.00 in0.0 mm 0.00 in0.0 mm 0.00 in0.0 mm
09:50 AM 72.1°F22.3°C 22.0°F-5.6°C 15% 12.5 mph NNE20.1 kmh NNE 20.0 mph32.2 kmh 30.09 in1019.0 mb 0.00 in0.0 mm 0.00 in0.0 mm 0.00 in0.0 mm
09:40 AM 71.4°F21.9°C 23.0°F-5.0°C 16% 11.4 mph NNE18.3 kmh NNE 23.0 mph37.0 kmh 30.09 in1019.0 mb 0.00 in0.0 mm 0.00 in0.0 mm 0.00 in0.0 mm
09:30 AM 71.1°F21.7°C 23.0°F-5.0°C 16% 10.8 mph NE17.4 kmh NE 19.0 mph30.6 kmh 30.09 in1019.0 mb 0.00 in0.0 mm 0.00 in0.0 mm 0.00 in0.0 mm
09:20 AM 70.7°F21.5°C 22.0°F-5.6°C 16% 11.1 mph NE17.9 kmh NE 19.0 mph30.6 kmh 30.09 in1019.0 mb 0.00 in0.0 mm 0.00 in0.0 mm 0.00 in0.0 mm
09:10 AM 70.8°F21.6°C 22.0°F-5.6°C 16% 10.8 mph NNE17.4 kmh NNE 18.0 mph29.0 kmh 30.09 in1019.0 mb 0.00 in0.0 mm 0.00 in0.0 mm 0.00 in0.0 mm
09:00 AM 70.8°F21.6°C 21.0°F-6.1°C 15% 12.2 mph NNE19.6 kmh NNE 23.0 mph37.0 kmh 30.09 in1019.0 mb 0.00 in0.0 mm 0.00 in0.0 mm 0.00 in0.0 mm
08:50 AM 70.3°F21.3°C 22.0°F-5.6°C 16% 11.2 mph NNE18.0 kmh NNE 24.0 mph38.6 kmh 30.09 in1019.0 mb 0.00 in0.0 mm 0.00 in0.0 mm 0.00 in0.0 mm
08:40 AM 70.1°F21.2°C 22.0°F-5.6°C 16% 11.1 mph N17.9 kmh N 24.0 mph38.6 kmh 30.09 in1019.0 mb 0.00 in0.0 mm 0.00 in0.0 mm 0.00 in0.0 mm
08:30 AM 70.0°F21.1°C 22.0°F-5.6°C 16% 12.1 mph NW19.5 kmh NW 20.0 mph32.2 kmh 30.09 in1019.0 mb 0.00 in0.0 mm 0.00 in0.0 mm 0.00 in0.0 mm
08:20 AM 69.2°F20.7°C 21.0°F-6.1°C 16% 11.6 mph NNW18.7 kmh NNW 21.0 mph33.8 kmh 30.09 in1019.0 mb 0.00 in0.0 mm 0.00 in0.0 mm 0.00 in0.0 mm
08:10 AM 69.6°F20.9°C 21.0°F-6.1°C 16% 12.7 mph N20.4 kmh N 23.0 mph37.0 kmh 30.08 in1018.6 mb 0.00 in0.0 mm 0.00 in0.0 mm 0.00 in0.0 mm
08:00 AM 69.5°F20.8°C 21.0°F-6.1°C 16% 11.9 mph N19.2 kmh N 23.0 mph37.0 kmh 30.08 in1018.6 mb 0.00 in0.0 mm 0.00 in0.0 mm 0.00 in0.0 mm
07:50 AM 69.6°F20.9°C 21.0°F-6.1°C 16% 11.8 mph NW19.0 kmh NW 23.0 mph37.0 kmh 30.07 in1018.3 mb 0.00 in0.0 mm 0.00 in0.0 mm 0.00 in0.0 mm
07:40 AM 69.9°F21.1°C 20.0°F-6.7°C 15% 11.5 mph NNW18.5 kmh NNW 22.0 mph35.4 kmh 30.07 in1018.3 mb 0.00 in0.0 mm 0.00 in0.0 mm 0.00 in0.0 mm
07:30 AM 70.1°F21.2°C 20.0°F-6.7°C 15% 13.4 mph N21.6 kmh N 21.0 mph33.8 kmh 30.07 in1018.3 mb 0.00 in0.0 mm 0.00 in0.0 mm 0.00 in0.0 mm
07:20 AM 69.8°F21.0°C 20.0°F-6.7°C 15% 11.9 mph NNE19.2 kmh NNE 22.0 mph35.4 kmh 30.06 in1017.9 mb 0.00 in0.0 mm 0.00 in0.0 mm 0.00 in0.0 mm
07:10 AM 69.4°F20.8°C 21.0°F-6.1°C 16% 12.6 mph NNE20.3 kmh NNE 22.0 mph35.4 kmh 30.07 in1018.3 mb 0.00 in0.0 mm 0.00 in0.0 mm 0.00 in0.0 mm
07:00 AM 69.8°F21.0°C 20.0°F-6.7°C 15% 13.1 mph NNE21.1 kmh NNE 23.0 mph37.0 kmh 30.07 in1018.3 mb 0.00 in0.0 mm 0.00 in0.0 mm 0.00 in0.0 mm
06:50 AM 69.8°F21.0°C 21.0°F-6.1°C 16% 12.9 mph NNE20.8 kmh NNE 23.0 mph37.0 kmh 30.06 in1017.9 mb 0.00 in0.0 mm 0.00 in0.0 mm 0.00 in0.0 mm
06:40 AM 70.1°F21.2°C 20.0°F-6.7°C 15% 12.9 mph NE20.8 kmh NE 22.0 mph35.4 kmh 30.06 in1017.9 mb 0.00 in0.0 mm 0.00 in0.0 mm 0.00 in0.0 mm
06:30 AM 70.1°F21.2°C 20.0°F-6.7°C 15% 12.3 mph NNW19.8 kmh NNW 20.0 mph32.2 kmh 30.05 in1017.6 mb 0.00 in0.0 mm 0.00 in0.0 mm 0.00 in0.0 mm
06:20 AM 70.4°F21.3°C 20.0°F-6.7°C 15% 13.2 mph N21.2 kmh N 24.0 mph38.6 kmh 30.05 in1017.6 mb 0.00 in0.0 mm 0.00 in0.0 mm 0.00 in0.0 mm
06:10 AM 70.6°F21.4°C 21.0°F-6.1°C 15% 14.5 mph N23.3 kmh N 25.0 mph40.2 kmh 30.05 in1017.6 mb 0.00 in0.0 mm 0.00 in0.0 mm 0.00 in0.0 mm
06:00 AM 70.5°F21.4°C 21.0°F-6.1°C 15% 14.8 mph NNE23.8 kmh NNE 24.0 mph38.6 kmh 30.05 in1017.6 mb 0.00 in0.0 mm 0.00 in0.0 mm 0.00 in0.0 mm
05:50 AM 69.8°F21.0°C 21.0°F-6.1°C 16% 13.6 mph N21.9 kmh N 24.0 mph38.6 kmh 30.04 in1017.3 mb 0.00 in0.0 mm 0.00 in0.0 mm 0.00 in0.0 mm
05:40 AM 69.6°F20.9°C 21.0°F-6.1°C 16% 12.0 mph NNE19.3 kmh NNE 20.0 mph32.2 kmh 30.04 in1017.3 mb 0.00 in0.0 mm 0.00 in0.0 mm 0.00 in0.0 mm
05:30 AM 69.5°F20.8°C 21.0°F-6.1°C 16% 11.9 mph N19.2 kmh N 25.0 mph40.2 kmh 30.04 in1017.3 mb 0.00 in0.0 mm 0.00 in0.0 mm 0.00 in0.0 mm
05:20 AM 69.2°F20.7°C 21.0°F-6.1°C 16% 12.6 mph N20.3 kmh N 23.0 mph37.0 kmh 30.04 in1017.3 mb 0.00 in0.0 mm 0.00 in0.0 mm 0.00 in0.0 mm
05:10 AM 69.1°F20.6°C 22.0°F-5.6°C 17% 12.6 mph NW20.3 kmh NW 21.0 mph33.8 kmh 30.04 in1017.3 mb 0.00 in0.0 mm 0.00 in0.0 mm 0.00 in0.0 mm
05:00 AM 68.8°F20.4°C 22.0°F-5.6°C 17% 12.6 mph NNW20.3 kmh NNW 23.0 mph37.0 kmh 30.04 in1017.3 mb 0.00 in0.0 mm 0.00 in0.0 mm 0.00 in0.0 mm
04:50 AM 68.9°F20.5°C 22.0°F-5.6°C 17% 12.3 mph NE19.8 kmh NE 22.0 mph35.4 kmh 30.04 in1017.3 mb 0.00 in0.0 mm 0.00 in0.0 mm 0.00 in0.0 mm
04:40 AM 68.8°F20.4°C 22.0°F-5.6°C 17% 11.6 mph NE18.7 kmh NE 20.0 mph32.2 kmh 30.04 in1017.3 mb 0.00 in0.0 mm 0.00 in0.0 mm 0.00 in0.0 mm
04:30 AM 69.1°F20.6°C 22.0°F-5.6°C 17% 10.9 mph N17.5 kmh N 20.0 mph32.2 kmh 30.04 in1017.3 mb 0.00 in0.0 mm 0.00 in0.0 mm 0.00 in0.0 mm
04:20 AM 68.7°F20.4°C 23.0°F-5.0°C 18% 10.8 mph NE17.4 kmh NE 20.0 mph32.2 kmh 30.04 in1017.3 mb 0.00 in0.0 mm 0.00 in0.0 mm 0.00 in0.0 mm
04:10 AM 67.2°F19.6°C 23.0°F-5.0°C 19% 8.1 mph NNW13.0 kmh NNW 16.0 mph25.7 kmh 30.04 in1017.3 mb 0.00 in0.0 mm 0.00 in0.0 mm 0.00 in0.0 mm
04:00 AM 65.5°F18.6°C 24.0°F-4.4°C 21% 7.4 mph NNE11.9 kmh NNE 12.0 mph19.3 kmh 30.05 in1017.6 mb 0.00 in0.0 mm 0.00 in0.0 mm 0.00 in0.0 mm
03:50 AM 65.9°F18.8°C 25.0°F-3.9°C 21% 8.2 mph NE13.2 kmh NE 13.0 mph20.9 kmh 30.04 in1017.3 mb 0.00 in0.0 mm 0.00 in0.0 mm 0.00 in0.0 mm
03:40 AM 67.4°F19.7°C 25.0°F-3.9°C 20% 9.4 mph N15.1 kmh N 15.0 mph24.1 kmh 30.04 in1017.3 mb 0.00 in0.0 mm 0.00 in0.0 mm 0.00 in0.0 mm
03:30 AM 66.5°F19.2°C 25.0°F-3.9°C 21% 8.5 mph N13.7 kmh N 16.0 mph25.7 kmh 30.04 in1017.3 mb 0.00 in0.0 mm 0.00 in0.0 mm 0.00 in0.0 mm
03:20 AM 67.5°F19.7°C 26.0°F-3.3°C 21% 8.5 mph N13.7 kmh N 15.0 mph24.1 kmh 30.04 in1017.3 mb 0.00 in0.0 mm 0.00 in0.0 mm 0.00 in0.0 mm
03:10 AM 69.0°F20.6°C 25.0°F-3.9°C 19% 8.0 mph NNE12.9 kmh NNE 14.0 mph22.5 kmh 30.04 in1017.3 mb 0.00 in0.0 mm 0.00 in0.0 mm 0.00 in0.0 mm
03:00 AM 69.4°F20.8°C 25.0°F-3.9°C 19% 7.5 mph NE12.1 kmh NE 16.0 mph25.7 kmh 30.04 in1017.3 mb 0.00 in0.0 mm 0.00 in0.0 mm 0.00 in0.0 mm
02:50 AM 68.9°F20.5°C 26.0°F-3.3°C 20% 7.1 mph N11.4 kmh N 13.0 mph20.9 kmh 30.04 in1017.3 mb 0.00 in0.0 mm 0.00 in0.0 mm 0.00 in0.0 mm
02:40 AM 68.9°F20.5°C 26.0°F-3.3°C 20% 8.0 mph N12.9 kmh N 15.0 mph24.1 kmh 30.04 in1017.3 mb 0.00 in0.0 mm 0.00 in0.0 mm 0.00 in0.0 mm
02:30 AM 69.1°F20.6°C 26.0°F-3.3°C 20% 6.1 mph N9.8 kmh N 13.0 mph20.9 kmh 30.04 in1017.3 mb 0.00 in0.0 mm 0.00 in0.0 mm 0.00 in0.0 mm
02:20 AM 68.2°F20.1°C 28.0°F-2.2°C 22% 7.2 mph E11.6 kmh E 13.0 mph20.9 kmh 30.04 in1017.3 mb 0.00 in0.0 mm 0.00 in0.0 mm 0.00 in0.0 mm
02:10 AM 67.7°F19.8°C 28.0°F-2.2°C 23% 7.5 mph N12.1 kmh N 13.0 mph20.9 kmh 30.04 in1017.3 mb 0.00 in0.0 mm 0.00 in0.0 mm 0.00 in0.0 mm
02:00 AM 67.1°F19.5°C 29.0°F-1.7°C 24% 6.3 mph NNE10.1 kmh NNE 12.0 mph19.3 kmh 30.04 in1017.3 mb 0.00 in0.0 mm 0.00 in0.0 mm 0.00 in0.0 mm
01:50 AM 67.4°F19.7°C 29.0°F-1.7°C 24% 6.8 mph NE10.9 kmh NE 13.0 mph20.9 kmh 30.04 in1017.3 mb 0.00 in0.0 mm 0.00 in0.0 mm 0.00 in0.0 mm
01:40 AM 67.2°F19.6°C 29.0°F-1.7°C 24% 7.1 mph NNE11.4 kmh NNE 12.0 mph19.3 kmh 30.04 in1017.3 mb 0.00 in0.0 mm 0.00 in0.0 mm 0.00 in0.0 mm
01:30 AM 66.9°F19.4°C 30.0°F-1.1°C 25% 6.4 mph NNW10.3 kmh NNW 12.0 mph19.3 kmh 30.04 in1017.3 mb 0.00 in0.0 mm 0.00 in0.0 mm 0.00 in0.0 mm
01:20 AM 67.1°F19.5°C 30.0°F-1.1°C 25% 6.8 mph N10.9 kmh N 15.0 mph24.1 kmh 30.04 in1017.3 mb 0.00 in0.0 mm 0.00 in0.0 mm 0.00 in0.0 mm
01:10 AM 67.9°F19.9°C 31.0°F-0.6°C 25% 7.4 mph NE11.9 kmh NE 15.0 mph24.1 kmh 30.04 in1017.3 mb 0.00 in0.0 mm 0.00 in0.0 mm 0.00 in0.0 mm
01:00 AM 66.2°F19.0°C 31.0°F-0.6°C 27% 6.0 mph N9.7 kmh N 11.0 mph17.7 kmh 30.04 in1017.3 mb 0.00 in0.0 mm 0.00 in0.0 mm 0.00 in0.0 mm
12:50 AM 67.1°F19.5°C 31.0°F-0.6°C 26% 5.9 mph N9.5 kmh N 10.0 mph16.1 kmh 30.04 in1017.3 mb 0.00 in0.0 mm 0.00 in0.0 mm 0.00 in0.0 mm
12:40 AM 66.0°F18.9°C 31.0°F-0.6°C 27% 5.0 mph NW8.0 kmh NW 9.0 mph14.5 kmh 30.04 in1017.3 mb 0.00 in0.0 mm 0.00 in0.0 mm 0.00 in0.0 mm
12:30 AM 65.5°F18.6°C 30.0°F-1.1°C 27% 6.0 mph N9.7 kmh N 11.0 mph17.7 kmh 30.04 in1017.3 mb 0.00 in0.0 mm 0.00 in0.0 mm 0.00 in0.0 mm
12:20 AM 65.4°F18.6°C 31.0°F-0.6°C 28% 5.4 mph NNW8.7 kmh NNW 10.0 mph16.1 kmh 30.04 in1017.3 mb 0.00 in0.0 mm 0.00 in0.0 mm 0.00 in0.0 mm
12:10 AM 64.3°F17.9°C 31.0°F-0.6°C 29% 4.8 mph NNE7.7 kmh NNE 8.0 mph12.9 kmh 30.04 in1017.3 mb 0.00 in0.0 mm 0.00 in0.0 mm 0.00 in0.0 mm
12:00 AM 64.7°F18.2°C 32.0°F0.0°C 29% 3.5 mph NE5.6 kmh NE 10.0 mph16.1 kmh 30.05 in1017.6 mb 0.00 in0.0 mm 0.00 in0.0 mm 0.00 in0.0 mm